sensor_id;sensor_type;location;lat;lon;timestamp;P1;durP1;ratioP1;P2;durP2;ratioP2
23117;SDS011;11728;50.624;6.014;2023-06-14T00:01:43;8.57;;;4.80;;
23117;SDS011;11728;50.624;6.014;2023-06-14T00:07:06;5.80;;;5.00;;
23117;SDS011;11728;50.624;6.014;2023-06-14T00:12:29;8.10;;;4.80;;
23117;SDS011;11728;50.624;6.014;2023-06-14T00:17:50;6.38;;;5.00;;
23117;SDS011;11728;50.624;6.014;2023-06-14T00:23:11;8.48;;;4.50;;
23117;SDS011;11728;50.624;6.014;2023-06-14T00:28:32;9.93;;;5.13;;
23117;SDS011;11728;50.624;6.014;2023-06-14T00:33:53;7.03;;;4.72;;
23117;SDS011;11728;50.624;6.014;2023-06-14T00:39:13;4.97;;;4.28;;
23117;SDS011;11728;50.624;6.014;2023-06-14T00:44:34;7.68;;;4.60;;
23117;SDS011;11728;50.624;6.014;2023-06-14T00:49:55;9.90;;;4.82;;
23117;SDS011;11728;50.624;6.014;2023-06-14T00:55:17;8.13;;;5.45;;
23117;SDS011;11728;50.624;6.014;2023-06-14T01:00:37;6.57;;;5.03;;
23117;SDS011;11728;50.624;6.014;2023-06-14T01:06:05;7.70;;;4.97;;
23117;SDS011;11728;50.624;6.014;2023-06-14T01:11:38;8.68;;;5.43;;
23117;SDS011;11728;50.624;6.014;2023-06-14T01:17:07;7.60;;;5.43;;
23117;SDS011;11728;50.624;6.014;2023-06-14T01:22:35;11.07;;;5.18;;
23117;SDS011;11728;50.624;6.014;2023-06-14T01:28:00;5.53;;;4.70;;
23117;SDS011;11728;50.624;6.014;2023-06-14T01:33:26;8.45;;;5.50;;
23117;SDS011;11728;50.624;6.014;2023-06-14T01:38:48;10.60;;;5.68;;
23117;SDS011;11728;50.624;6.014;2023-06-14T01:44:12;6.70;;;5.38;;
23117;SDS011;11728;50.624;6.014;2023-06-14T01:49:34;9.82;;;6.25;;
23117;SDS011;11728;50.624;6.014;2023-06-14T01:54:55;11.07;;;5.55;;
23117;SDS011;11728;50.624;6.014;2023-06-14T02:00:16;12.07;;;5.28;;
23117;SDS011;11728;50.624;6.014;2023-06-14T02:05:38;9.98;;;5.70;;
23117;SDS011;11728;50.624;6.014;2023-06-14T02:11:00;10.57;;;6.22;;
23117;SDS011;11728;50.624;6.014;2023-06-14T02:16:20;15.38;;;6.13;;
23117;SDS011;11728;50.624;6.014;2023-06-14T02:21:42;8.07;;;6.00;;
23117;SDS011;11728;50.624;6.014;2023-06-14T02:27:04;10.63;;;5.63;;
23117;SDS011;11728;50.624;6.014;2023-06-14T02:32:25;8.52;;;6.03;;
23117;SDS011;11728;50.624;6.014;2023-06-14T02:37:47;7.88;;;6.20;;
23117;SDS011;11728;50.624;6.014;2023-06-14T02:43:08;6.72;;;5.80;;
23117;SDS011;11728;50.624;6.014;2023-06-14T02:48:29;7.53;;;5.95;;
23117;SDS011;11728;50.624;6.014;2023-06-14T02:53:50;6.63;;;5.35;;
23117;SDS011;11728;50.624;6.014;2023-06-14T02:59:11;9.88;;;5.88;;
23117;SDS011;11728;50.624;6.014;2023-06-14T03:04:33;7.78;;;5.43;;
23117;SDS011;11728;50.624;6.014;2023-06-14T03:09:57;9.07;;;5.15;;
23117;SDS011;11728;50.624;6.014;2023-06-14T03:15:18;8.82;;;5.28;;
23117;SDS011;11728;50.624;6.014;2023-06-14T03:20:39;6.25;;;5.07;;
23117;SDS011;11728;50.624;6.014;2023-06-14T03:26:01;8.13;;;4.88;;
23117;SDS011;11728;50.624;6.014;2023-06-14T03:31:21;7.47;;;5.07;;
23117;SDS011;11728;50.624;6.014;2023-06-14T03:36:44;9.65;;;5.63;;
23117;SDS011;11728;50.624;6.014;2023-06-14T03:42:04;7.75;;;5.47;;
23117;SDS011;11728;50.624;6.014;2023-06-14T03:47:25;8.38;;;5.60;;
23117;SDS011;11728;50.624;6.014;2023-06-14T03:52:48;7.15;;;5.60;;
23117;SDS011;11728;50.624;6.014;2023-06-14T03:58:09;7.03;;;5.32;;
23117;SDS011;11728;50.624;6.014;2023-06-14T04:03:31;7.97;;;4.95;;
23117;SDS011;11728;50.624;6.014;2023-06-14T04:08:52;8.85;;;5.45;;
23117;SDS011;11728;50.624;6.014;2023-06-14T04:14:12;9.02;;;5.25;;
23117;SDS011;11728;50.624;6.014;2023-06-14T04:19:33;7.97;;;5.40;;
23117;SDS011;11728;50.624;6.014;2023-06-14T04:24:54;8.20;;;5.38;;
23117;SDS011;11728;50.624;6.014;2023-06-14T04:30:19;9.43;;;5.97;;
23117;SDS011;11728;50.624;6.014;2023-06-14T04:35:41;8.65;;;5.43;;
23117;SDS011;11728;50.624;6.014;2023-06-14T04:41:02;11.10;;;5.97;;
23117;SDS011;11728;50.624;6.014;2023-06-14T04:46:23;8.63;;;5.32;;
23117;SDS011;11728;50.624;6.014;2023-06-14T04:51:44;12.50;;;5.60;;
23117;SDS011;11728;50.624;6.014;2023-06-14T04:57:06;12.00;;;5.72;;
23117;SDS011;11728;50.624;6.014;2023-06-14T05:02:26;6.40;;;5.13;;
23117;SDS011;11728;50.624;6.014;2023-06-14T05:07:47;8.85;;;5.25;;
23117;SDS011;11728;50.624;6.014;2023-06-14T05:13:08;12.38;;;5.75;;
23117;SDS011;11728;50.624;6.014;2023-06-14T05:18:30;15.77;;;5.90;;
23117;SDS011;11728;50.624;6.014;2023-06-14T05:23:51;15.48;;;5.65;;
23117;SDS011;11728;50.624;6.014;2023-06-14T05:29:12;15.48;;;5.28;;
23117;SDS011;11728;50.624;6.014;2023-06-14T05:34:33;7.72;;;5.05;;
23117;SDS011;11728;50.624;6.014;2023-06-14T05:39:54;16.48;;;5.78;;
23117;SDS011;11728;50.624;6.014;2023-06-14T05:45:14;10.70;;;5.60;;
23117;SDS011;11728;50.624;6.014;2023-06-14T05:50:36;9.80;;;6.05;;
23117;SDS011;11728;50.624;6.014;2023-06-14T05:55:57;9.73;;;5.85;;
23117;SDS011;11728;50.624;6.014;2023-06-14T06:01:17;13.02;;;5.97;;
23117;SDS011;11728;50.624;6.014;2023-06-14T06:06:38;11.15;;;5.63;;
23117;SDS011;11728;50.624;6.014;2023-06-14T06:12:00;17.65;;;6.20;;
23117;SDS011;11728;50.624;6.014;2023-06-14T06:17:20;9.25;;;5.53;;
23117;SDS011;11728;50.624;6.014;2023-06-14T06:22:41;12.30;;;5.63;;
23117;SDS011;11728;50.624;6.014;2023-06-14T06:28:02;11.07;;;4.80;;
23117;SDS011;11728;50.624;6.014;2023-06-14T06:33:23;11.63;;;4.70;;
23117;SDS011;11728;50.624;6.014;2023-06-14T06:38:43;9.32;;;4.78;;
23117;SDS011;11728;50.624;6.014;2023-06-14T06:44:07;15.20;;;6.32;;
23117;SDS011;11728;50.624;6.014;2023-06-14T06:49:30;13.68;;;6.22;;
23117;SDS011;11728;50.624;6.014;2023-06-14T06:54:50;9.48;;;5.32;;
23117;SDS011;11728;50.624;6.014;2023-06-14T07:00:15;8.88;;;5.45;;
23117;SDS011;11728;50.624;6.014;2023-06-14T07:05:36;10.48;;;4.78;;
23117;SDS011;11728;50.624;6.014;2023-06-14T07:10:57;8.32;;;4.60;;
23117;SDS011;11728;50.624;6.014;2023-06-14T07:16:18;9.32;;;4.00;;
23117;SDS011;11728;50.624;6.014;2023-06-14T07:21:39;9.35;;;4.30;;
23117;SDS011;11728;50.624;6.014;2023-06-14T07:26:59;8.05;;;4.60;;
23117;SDS011;11728;50.624;6.014;2023-06-14T07:32:20;10.82;;;4.25;;
23117;SDS011;11728;50.624;6.014;2023-06-14T07:37:41;8.23;;;4.13;;
23117;SDS011;11728;50.624;6.014;2023-06-14T07:43:01;9.05;;;4.00;;
23117;SDS011;11728;50.624;6.014;2023-06-14T07:48:22;7.72;;;3.78;;
23117;SDS011;11728;50.624;6.014;2023-06-14T07:53:43;5.80;;;3.92;;
23117;SDS011;11728;50.624;6.014;2023-06-14T07:59:04;6.68;;;3.33;;
23117;SDS011;11728;50.624;6.014;2023-06-14T08:04:26;10.57;;;3.97;;
23117;SDS011;11728;50.624;6.014;2023-06-14T08:09:46;7.65;;;3.60;;
23117;SDS011;11728;50.624;6.014;2023-06-14T08:15:07;7.05;;;3.45;;
23117;SDS011;11728;50.624;6.014;2023-06-14T08:20:28;6.40;;;3.25;;
23117;SDS011;11728;50.624;6.014;2023-06-14T08:25:50;8.38;;;3.67;;
23117;SDS011;11728;50.624;6.014;2023-06-14T08:31:11;5.57;;;3.40;;
23117;SDS011;11728;50.624;6.014;2023-06-14T08:36:33;8.43;;;3.17;;
23117;SDS011;11728;50.624;6.014;2023-06-14T08:41:55;8.43;;;3.72;;
23117;SDS011;11728;50.624;6.014;2023-06-14T08:47:17;8.75;;;3.33;;
23117;SDS011;11728;50.624;6.014;2023-06-14T08:52:39;6.70;;;3.53;;
23117;SDS011;11728;50.624;6.014;2023-06-14T08:58:05;6.00;;;3.45;;
23117;SDS011;11728;50.624;6.014;2023-06-14T09:03:26;4.22;;;2.95;;
23117;SDS011;11728;50.624;6.014;2023-06-14T09:08:51;5.47;;;3.10;;
23117;SDS011;11728;50.624;6.014;2023-06-14T09:14:12;6.50;;;3.20;;
23117;SDS011;11728;50.624;6.014;2023-06-14T09:19:33;10.18;;;3.45;;
23117;SDS011;11728;50.624;6.014;2023-06-14T09:24:55;6.38;;;3.10;;
23117;SDS011;11728;50.624;6.014;2023-06-14T09:30:16;9.30;;;3.08;;
23117;SDS011;11728;50.624;6.014;2023-06-14T09:35:40;7.85;;;2.97;;
23117;SDS011;11728;50.624;6.014;2023-06-14T09:41:01;9.50;;;3.40;;
23117;SDS011;11728;50.624;6.014;2023-06-14T09:46:24;6.25;;;2.85;;
23117;SDS011;11728;50.624;6.014;2023-06-14T09:51:45;7.70;;;3.10;;
23117;SDS011;11728;50.624;6.014;2023-06-14T09:57:12;6.95;;;2.95;;
23117;SDS011;11728;50.624;6.014;2023-06-14T10:02:35;5.38;;;2.72;;
23117;SDS011;11728;50.624;6.014;2023-06-14T10:08:03;5.22;;;2.70;;
23117;SDS011;11728;50.624;6.014;2023-06-14T10:13:26;5.90;;;2.63;;
23117;SDS011;11728;50.624;6.014;2023-06-14T10:18:51;4.57;;;2.80;;
23117;SDS011;11728;50.624;6.014;2023-06-14T10:24:20;5.07;;;2.70;;
23117;SDS011;11728;50.624;6.014;2023-06-14T10:30:08;6.45;;;2.25;;
23117;SDS011;11728;50.624;6.014;2023-06-14T10:35:29;5.43;;;2.47;;
23117;SDS011;11728;50.624;6.014;2023-06-14T10:40:52;5.03;;;2.08;;
23117;SDS011;11728;50.624;6.014;2023-06-14T10:46:17;5.13;;;2.28;;
23117;SDS011;11728;50.624;6.014;2023-06-14T10:51:42;8.15;;;2.33;;
23117;SDS011;11728;50.624;6.014;2023-06-14T10:57:09;5.60;;;2.58;;
23117;SDS011;11728;50.624;6.014;2023-06-14T11:14:09;5.68;;;2.35;;
23117;SDS011;11728;50.624;6.014;2023-06-14T11:19:30;6.03;;;2.75;;
23117;SDS011;11728;50.624;6.014;2023-06-14T11:24:52;4.30;;;2.17;;
23117;SDS011;11728;50.624;6.014;2023-06-14T11:30:13;6.65;;;2.67;;
23117;SDS011;11728;50.624;6.014;2023-06-14T11:35:34;5.75;;;2.63;;
23117;SDS011;11728;50.624;6.014;2023-06-14T11:40:58;5.68;;;2.60;;
23117;SDS011;11728;50.624;6.014;2023-06-14T11:46:19;5.57;;;2.38;;
23117;SDS011;11728;50.624;6.014;2023-06-14T11:51:44;6.15;;;2.72;;
23117;SDS011;11728;50.624;6.014;2023-06-14T11:57:05;3.15;;;2.20;;
23117;SDS011;11728;50.624;6.014;2023-06-14T12:02:27;9.23;;;2.25;;
23117;SDS011;11728;50.624;6.014;2023-06-14T12:07:58;3.25;;;2.05;;
23117;SDS011;11728;50.624;6.014;2023-06-14T12:13:20;3.30;;;1.75;;
23117;SDS011;11728;50.624;6.014;2023-06-14T12:18:41;7.65;;;1.92;;
23117;SDS011;11728;50.624;6.014;2023-06-14T12:24:03;3.28;;;2.13;;
23117;SDS011;11728;50.624;6.014;2023-06-14T12:29:27;4.72;;;1.75;;
23117;SDS011;11728;50.624;6.014;2023-06-14T12:34:47;2.88;;;1.75;;
23117;SDS011;11728;50.624;6.014;2023-06-14T12:40:09;7.00;;;2.05;;
23117;SDS011;11728;50.624;6.014;2023-06-14T12:45:31;3.97;;;2.20;;
23117;SDS011;11728;50.624;6.014;2023-06-14T12:50:52;7.00;;;1.95;;
23117;SDS011;11728;50.624;6.014;2023-06-14T12:56:13;6.97;;;2.17;;
23117;SDS011;11728;50.624;6.014;2023-06-14T13:01:34;6.80;;;2.08;;
23117;SDS011;11728;50.624;6.014;2023-06-14T13:06:58;9.88;;;2.10;;
23117;SDS011;11728;50.624;6.014;2023-06-14T13:12:18;9.75;;;2.03;;
23117;SDS011;11728;50.624;6.014;2023-06-14T13:17:39;12.10;;;2.45;;
23117;SDS011;11728;50.624;6.014;2023-06-14T13:23:00;13.52;;;1.95;;
23117;SDS011;11728;50.624;6.014;2023-06-14T13:28:22;5.53;;;2.20;;
23117;SDS011;11728;50.624;6.014;2023-06-14T13:33:43;7.93;;;2.25;;
23117;SDS011;11728;50.624;6.014;2023-06-14T13:39:03;8.73;;;2.30;;
23117;SDS011;11728;50.624;6.014;2023-06-14T13:44:24;6.65;;;2.10;;
23117;SDS011;11728;50.624;6.014;2023-06-14T13:49:45;9.00;;;2.15;;
23117;SDS011;11728;50.624;6.014;2023-06-14T13:55:06;7.38;;;2.33;;
23117;SDS011;11728;50.624;6.014;2023-06-14T14:00:27;7.88;;;1.80;;
23117;SDS011;11728;50.624;6.014;2023-06-14T14:05:47;8.50;;;2.20;;
23117;SDS011;11728;50.624;6.014;2023-06-14T14:11:08;8.23;;;2.17;;
23117;SDS011;11728;50.624;6.014;2023-06-14T14:16:29;5.60;;;2.10;;
23117;SDS011;11728;50.624;6.014;2023-06-14T14:21:50;8.27;;;1.83;;
23117;SDS011;11728;50.624;6.014;2023-06-14T14:27:13;8.00;;;2.00;;
23117;SDS011;11728;50.624;6.014;2023-06-14T14:32:34;7.30;;;1.80;;
23117;SDS011;11728;50.624;6.014;2023-06-14T14:37:55;6.72;;;2.08;;
23117;SDS011;11728;50.624;6.014;2023-06-14T14:43:15;3.65;;;1.75;;
23117;SDS011;11728;50.624;6.014;2023-06-14T14:48:36;3.80;;;1.92;;
23117;SDS011;11728;50.624;6.014;2023-06-14T14:53:57;5.05;;;2.20;;
23117;SDS011;11728;50.624;6.014;2023-06-14T14:59:18;6.50;;;1.90;;
23117;SDS011;11728;50.624;6.014;2023-06-14T15:04:39;5.55;;;2.40;;
23117;SDS011;11728;50.624;6.014;2023-06-14T15:10:00;7.10;;;2.45;;
23117;SDS011;11728;50.624;6.014;2023-06-14T15:15:22;5.05;;;2.10;;
23117;SDS011;11728;50.624;6.014;2023-06-14T15:20:42;6.20;;;2.40;;
23117;SDS011;11728;50.624;6.014;2023-06-14T15:26:03;4.25;;;2.22;;
23117;SDS011;11728;50.624;6.014;2023-06-14T15:31:24;5.72;;;2.30;;
23117;SDS011;11728;50.624;6.014;2023-06-14T15:36:48;5.45;;;2.10;;
23117;SDS011;11728;50.624;6.014;2023-06-14T15:42:08;3.83;;;1.85;;
23117;SDS011;11728;50.624;6.014;2023-06-14T15:47:30;4.40;;;2.05;;
23117;SDS011;11728;50.624;6.014;2023-06-14T15:52:50;5.40;;;2.10;;
23117;SDS011;11728;50.624;6.014;2023-06-14T15:58:11;5.43;;;1.95;;
23117;SDS011;11728;50.624;6.014;2023-06-14T16:03:32;4.55;;;1.80;;
23117;SDS011;11728;50.624;6.014;2023-06-14T16:08:53;7.35;;;1.70;;
23117;SDS011;11728;50.624;6.014;2023-06-14T16:14:13;3.90;;;1.80;;
23117;SDS011;11728;50.624;6.014;2023-06-14T16:19:37;2.92;;;1.70;;
23117;SDS011;11728;50.624;6.014;2023-06-14T16:24:57;5.75;;;1.80;;
23117;SDS011;11728;50.624;6.014;2023-06-14T16:30:18;3.47;;;1.70;;
23117;SDS011;11728;50.624;6.014;2023-06-14T16:35:39;5.05;;;1.70;;
23117;SDS011;11728;50.624;6.014;2023-06-14T16:41:02;3.30;;;1.50;;
23117;SDS011;11728;50.624;6.014;2023-06-14T16:46:30;3.67;;;1.60;;
23117;SDS011;11728;50.624;6.014;2023-06-14T16:51:51;2.70;;;1.30;;
23117;SDS011;11728;50.624;6.014;2023-06-14T16:57:12;3.33;;;1.42;;
23117;SDS011;11728;50.624;6.014;2023-06-14T17:02:32;3.55;;;1.38;;
23117;SDS011;11728;50.624;6.014;2023-06-14T17:07:53;2.33;;;1.40;;
23117;SDS011;11728;50.624;6.014;2023-06-14T17:13:14;2.92;;;1.42;;
23117;SDS011;11728;50.624;6.014;2023-06-14T17:18:35;4.07;;;1.60;;
23117;SDS011;11728;50.624;6.014;2023-06-14T17:23:55;5.57;;;1.65;;
23117;SDS011;11728;50.624;6.014;2023-06-14T17:29:16;6.03;;;1.70;;
23117;SDS011;11728;50.624;6.014;2023-06-14T17:34:37;4.35;;;1.95;;
23117;SDS011;11728;50.624;6.014;2023-06-14T17:39:57;4.97;;;1.60;;
23117;SDS011;11728;50.624;6.014;2023-06-14T17:45:18;3.10;;;1.38;;
23117;SDS011;11728;50.624;6.014;2023-06-14T17:50:39;3.63;;;1.83;;
23117;SDS011;11728;50.624;6.014;2023-06-14T17:56:01;5.95;;;1.80;;
23117;SDS011;11728;50.624;6.014;2023-06-14T18:01:23;2.35;;;1.35;;
23117;SDS011;11728;50.624;6.014;2023-06-14T18:06:44;2.72;;;1.55;;
23117;SDS011;11728;50.624;6.014;2023-06-14T18:12:05;2.65;;;1.65;;
23117;SDS011;11728;50.624;6.014;2023-06-14T18:17:27;2.70;;;1.35;;
23117;SDS011;11728;50.624;6.014;2023-06-14T18:22:48;8.00;;;1.70;;
23117;SDS011;11728;50.624;6.014;2023-06-14T18:28:09;3.05;;;1.90;;
23117;SDS011;11728;50.624;6.014;2023-06-14T18:33:30;3.97;;;1.90;;
23117;SDS011;11728;50.624;6.014;2023-06-14T18:38:52;2.55;;;1.55;;
23117;SDS011;11728;50.624;6.014;2023-06-14T18:44:13;5.18;;;1.60;;
23117;SDS011;11728;50.624;6.014;2023-06-14T18:49:33;4.90;;;1.80;;
23117;SDS011;11728;50.624;6.014;2023-06-14T18:54:55;4.93;;;1.70;;
23117;SDS011;11728;50.624;6.014;2023-06-14T19:00:17;2.28;;;1.70;;
23117;SDS011;11728;50.624;6.014;2023-06-14T19:05:38;5.78;;;1.80;;
23117;SDS011;11728;50.624;6.014;2023-06-14T19:10:58;2.65;;;1.80;;
23117;SDS011;11728;50.624;6.014;2023-06-14T19:16:19;2.90;;;1.60;;
23117;SDS011;11728;50.624;6.014;2023-06-14T19:21:40;5.65;;;1.88;;
23117;SDS011;11728;50.624;6.014;2023-06-14T19:27:01;4.43;;;1.80;;
23117;SDS011;11728;50.624;6.014;2023-06-14T19:32:21;4.53;;;1.80;;
23117;SDS011;11728;50.624;6.014;2023-06-14T19:37:42;3.70;;;1.92;;
23117;SDS011;11728;50.624;6.014;2023-06-14T19:43:03;3.35;;;1.98;;
23117;SDS011;11728;50.624;6.014;2023-06-14T19:48:23;2.92;;;1.90;;
23117;SDS011;11728;50.624;6.014;2023-06-14T19:53:44;4.45;;;2.13;;
23117;SDS011;11728;50.624;6.014;2023-06-14T19:59:05;4.03;;;2.00;;
23117;SDS011;11728;50.624;6.014;2023-06-14T20:04:26;4.78;;;2.30;;
23117;SDS011;11728;50.624;6.014;2023-06-14T20:09:46;4.40;;;2.25;;
23117;SDS011;11728;50.624;6.014;2023-06-14T20:15:08;4.22;;;2.00;;
23117;SDS011;11728;50.624;6.014;2023-06-14T20:20:29;5.50;;;2.35;;
23117;SDS011;11728;50.624;6.014;2023-06-14T20:25:50;4.38;;;2.17;;
23117;SDS011;11728;50.624;6.014;2023-06-14T20:31:11;3.88;;;2.22;;
23117;SDS011;11728;50.624;6.014;2023-06-14T20:36:42;3.60;;;2.13;;
23117;SDS011;11728;50.624;6.014;2023-06-14T20:42:03;4.05;;;2.40;;
23117;SDS011;11728;50.624;6.014;2023-06-14T20:47:24;7.05;;;2.25;;
23117;SDS011;11728;50.624;6.014;2023-06-14T20:52:45;6.35;;;2.33;;
23117;SDS011;11728;50.624;6.014;2023-06-14T20:58:06;4.75;;;2.50;;
23117;SDS011;11728;50.624;6.014;2023-06-14T21:03:28;5.05;;;2.45;;
23117;SDS011;11728;50.624;6.014;2023-06-14T21:08:49;5.80;;;2.53;;
23117;SDS011;11728;50.624;6.014;2023-06-14T21:14:12;4.47;;;2.22;;
23117;SDS011;11728;50.624;6.014;2023-06-14T21:19:34;4.25;;;2.97;;
23117;SDS011;11728;50.624;6.014;2023-06-14T21:24:55;6.07;;;2.47;;
23117;SDS011;11728;50.624;6.014;2023-06-14T21:30:15;3.15;;;2.20;;
23117;SDS011;11728;50.624;6.014;2023-06-14T21:35:37;6.75;;;2.30;;
23117;SDS011;11728;50.624;6.014;2023-06-14T21:40:57;9.88;;;2.15;;
23117;SDS011;11728;50.624;6.014;2023-06-14T21:46:18;3.53;;;2.38;;
23117;SDS011;11728;50.624;6.014;2023-06-14T21:51:39;3.10;;;2.38;;
23117;SDS011;11728;50.624;6.014;2023-06-14T21:57:00;6.10;;;2.60;;
23117;SDS011;11728;50.624;6.014;2023-06-14T22:02:21;4.68;;;2.70;;
23117;SDS011;11728;50.624;6.014;2023-06-14T22:07:42;5.90;;;2.55;;
23117;SDS011;11728;50.624;6.014;2023-06-14T22:13:04;3.45;;;2.63;;
23117;SDS011;11728;50.624;6.014;2023-06-14T22:18:25;4.95;;;2.40;;
23117;SDS011;11728;50.624;6.014;2023-06-14T22:23:48;4.78;;;2.55;;
23117;SDS011;11728;50.624;6.014;2023-06-14T22:29:08;4.65;;;2.47;;
23117;SDS011;11728;50.624;6.014;2023-06-14T22:34:29;3.55;;;2.47;;
23117;SDS011;11728;50.624;6.014;2023-06-14T22:39:52;3.15;;;2.28;;
23117;SDS011;11728;50.624;6.014;2023-06-14T22:45:14;3.95;;;2.40;;
23117;SDS011;11728;50.624;6.014;2023-06-14T22:50:44;5.90;;;2.47;;
23117;SDS011;11728;50.624;6.014;2023-06-14T22:56:06;5.97;;;2.55;;
23117;SDS011;11728;50.624;6.014;2023-06-14T23:01:27;4.78;;;2.42;;
23117;SDS011;11728;50.624;6.014;2023-06-14T23:06:48;4.35;;;2.55;;
23117;SDS011;11728;50.624;6.014;2023-06-14T23:12:12;5.47;;;2.40;;
23117;SDS011;11728;50.624;6.014;2023-06-14T23:17:32;3.33;;;2.60;;
23117;SDS011;11728;50.624;6.014;2023-06-14T23:22:53;5.40;;;2.65;;
23117;SDS011;11728;50.624;6.014;2023-06-14T23:28:14;4.07;;;2.55;;
23117;SDS011;11728;50.624;6.014;2023-06-14T23:33:37;5.28;;;2.72;;
23117;SDS011;11728;50.624;6.014;2023-06-14T23:38:58;3.47;;;2.53;;
23117;SDS011;11728;50.624;6.014;2023-06-14T23:44:23;4.93;;;2.45;;
23117;SDS011;11728;50.624;6.014;2023-06-14T23:49:44;4.75;;;2.50;;
23117;SDS011;11728;50.624;6.014;2023-06-14T23:55:05;6.13;;;2.70;;
